createdAt,value
2018-11-06T00:01:35.515Z,70.63
2018-11-06T00:04:04.990Z,65.10
2018-11-06T00:06:33.814Z,106.53
2018-11-06T00:09:02.058Z,78.97
2018-11-06T00:11:30.283Z,53.40
2018-11-06T00:13:58.518Z,62.37
2018-11-06T00:16:26.966Z,69.13
2018-11-06T00:18:55.435Z,60.03
2018-11-06T00:21:25.068Z,72.83
2018-11-06T00:23:53.301Z,76.17
2018-11-06T00:26:21.517Z,82.00
2018-11-06T00:28:49.753Z,77.43
2018-11-06T00:31:17.990Z,84.70
2018-11-06T00:33:46.211Z,103.73
2018-11-06T00:36:14.444Z,85.10
2018-11-06T00:38:42.685Z,90.00
2018-11-06T00:41:10.911Z,88.43
2018-11-06T00:43:39.155Z,101.37
2018-11-06T00:46:07.388Z,85.50
2018-11-06T00:48:35.599Z,85.10
2018-11-06T00:51:03.818Z,80.13
2018-11-06T00:53:32.262Z,70.70
2018-11-06T00:56:00.491Z,76.03
2018-11-06T00:58:28.775Z,88.40
2018-11-06T01:00:56.997Z,88.73
2018-11-06T01:03:30.604Z,97.60
2018-11-06T01:05:58.822Z,82.13
2018-11-06T01:08:27.062Z,82.57
2018-11-06T01:10:55.506Z,90.83
2018-11-06T01:13:23.731Z,89.17
2018-11-06T01:15:51.972Z,103.83
2018-11-06T01:18:20.772Z,111.77
2018-11-06T01:20:48.994Z,117.83
2018-11-06T01:23:17.442Z,106.67
2018-11-06T01:25:45.679Z,127.93
2018-11-06T01:28:13.898Z,113.00
2018-11-06T01:30:42.707Z,119.97
2018-11-06T01:33:11.155Z,125.37
2018-11-06T01:35:39.654Z,118.57
2018-11-06T01:38:08.123Z,105.83
2018-11-06T01:40:36.345Z,114.70
2018-11-06T01:43:04.590Z,111.73
2018-11-06T01:45:32.810Z,106.87
2018-11-06T01:48:01.052Z,95.57
2018-11-06T01:50:29.278Z,96.90
2018-11-06T01:52:57.499Z,105.57
2018-11-06T01:55:25.949Z,106.80
2018-11-06T01:57:54.406Z,117.23
2018-11-06T02:00:22.642Z,115.20
2018-11-06T02:02:50.926Z,87.70
2018-11-06T02:05:19.309Z,103.93
2018-11-06T02:07:48.778Z,106.50
2018-11-06T02:10:17.400Z,108.20
2018-11-06T02:12:46.658Z,84.40
2018-11-06T02:15:15.142Z,83.33
2018-11-06T02:17:44.453Z,106.93
2018-11-06T02:20:13.870Z,92.50
2018-11-06T02:22:43.026Z,76.30
2018-11-06T02:25:12.042Z,91.30
2018-11-06T02:27:40.290Z,99.47
2018-11-06T02:30:10.542Z,92.87
2018-11-06T02:32:39.010Z,99.77
2018-11-06T02:35:07.298Z,107.07
2018-11-06T02:37:35.970Z,93.87
2018-11-06T02:40:04.306Z,85.03
2018-11-06T02:42:32.761Z,104.83
2018-11-06T02:45:01.208Z,107.57
2018-11-06T02:47:29.662Z,105.23
2018-11-06T02:49:57.894Z,104.53
2018-11-06T02:52:26.112Z,98.97
2018-11-06T02:54:54.351Z,121.87
2018-11-06T02:57:22.571Z,92.87
2018-11-06T02:59:50.794Z,99.60
2018-11-06T03:02:19.022Z,101.23
2018-11-06T03:04:47.255Z,92.20
2018-11-06T03:07:16.264Z,101.93
2018-11-06T03:09:44.722Z,92.93
2018-11-06T03:12:13.163Z,89.43
2018-11-06T03:14:41.387Z,101.90
2018-11-06T03:17:09.839Z,103.33
2018-11-06T03:19:38.070Z,113.87
2018-11-06T03:22:06.514Z,119.50
2018-11-06T03:24:34.755Z,100.47
2018-11-06T03:27:03.346Z,95.57
2018-11-06T03:29:31.455Z,96.27
2018-11-06T03:31:59.670Z,92.03
2018-11-06T03:34:27.908Z,82.10
2018-11-06T03:36:56.118Z,86.77
2018-11-06T03:39:24.551Z,73.63
2018-11-06T03:41:52.787Z,92.13
2018-11-06T03:44:21.223Z,99.07
2018-11-06T03:46:49.455Z,81.63
2018-11-06T03:49:17.886Z,76.83
2018-11-06T03:51:46.106Z,70.27
2018-11-06T03:54:14.330Z,80.30
2018-11-06T03:56:42.559Z,67.57
2018-11-06T03:59:10.762Z,71.63
2018-11-06T04:01:39.338Z,75.20
2018-11-06T04:04:07.580Z,70.17
2018-11-06T04:06:35.845Z,89.70
2018-11-06T04:09:06.576Z,83.70
2018-11-06T04:11:35.003Z,87.33
2018-11-06T04:14:03.474Z,99.77
2018-11-06T04:16:32.372Z,80.63
2018-11-06T04:19:00.592Z,83.73
2018-11-06T04:21:35.755Z,107.70
2018-11-06T04:24:05.874Z,97.13
2018-11-06T04:26:34.975Z,106.20
2018-11-06T04:29:03.738Z,105.43
2018-11-06T04:31:32.186Z,100.57
2018-11-06T04:34:00.522Z,109.40
2018-11-06T04:36:29.691Z,101.67
2018-11-06T04:38:57.973Z,100.60
2018-11-06T04:41:26.543Z,116.40
2018-11-06T04:43:54.795Z,103.87
2018-11-06T04:46:24.640Z,91.10
2018-11-06T04:48:53.464Z,85.97
2018-11-06T04:51:21.886Z,95.37
2018-11-06T04:53:50.114Z,86.53
2018-11-06T04:56:18.355Z,96.07
2018-11-06T04:58:46.581Z,96.37
2018-11-06T05:01:14.823Z,115.80
2018-11-06T05:03:46.191Z,113.23
2018-11-06T05:06:14.750Z,94.77
2018-11-06T05:08:43.667Z,96.60
2018-11-06T05:11:12.183Z,110.93
2018-11-06T05:13:40.435Z,85.17
2018-11-06T05:16:08.674Z,105.50
2018-11-06T05:18:37.352Z,100.20
2018-11-06T05:21:06.351Z,89.60
2018-11-06T05:23:34.935Z,95.30
2018-11-06T05:26:03.202Z,85.27
2018-11-06T05:28:31.434Z,85.37
2018-11-06T05:30:59.663Z,83.50
2018-11-06T05:33:27.911Z,82.97
2018-11-06T05:35:56.379Z,84.43
2018-11-06T05:38:24.826Z,96.30
2018-11-06T05:41:04.783Z,97.43
2018-11-06T05:43:33.405Z,99.83
2018-11-06T05:46:01.679Z,98.67
2018-11-06T05:48:29.945Z,83.93
2018-11-06T05:50:58.154Z,96.20
2018-11-06T05:53:26.402Z,96.40
2018-11-06T05:55:54.614Z,97.17
2018-11-06T05:58:22.849Z,97.53
2018-11-06T06:00:51.304Z,99.07
2018-11-06T06:03:19.526Z,86.10
2018-11-06T06:05:47.978Z,96.87
2018-11-06T06:08:16.224Z,105.47
2018-11-06T06:10:44.475Z,93.33
2018-11-06T06:13:12.694Z,94.23
2018-11-06T06:15:40.935Z,89.50
2018-11-06T06:18:09.175Z,96.60
2018-11-06T06:20:37.418Z,101.63
2018-11-06T06:23:05.889Z,84.87
2018-11-06T06:25:34.139Z,77.93
2018-11-06T06:28:02.358Z,61.37
2018-11-06T06:30:31.388Z,78.67
2018-11-06T06:32:59.608Z,83.80
2018-11-06T06:35:27.842Z,74.37
2018-11-06T06:37:56.218Z,69.27
2018-11-06T06:40:24.454Z,85.47
2018-11-06T06:42:53.678Z,66.90
2018-11-06T06:45:21.958Z,78.13
2018-11-06T06:47:50.206Z,76.50
2018-11-06T06:50:19.603Z,71.43
2018-11-06T06:52:48.639Z,75.37
2018-11-06T06:55:17.338Z,73.30
2018-11-06T06:57:46.374Z,74.07
2018-11-06T07:00:21.502Z,70.23
2018-11-06T07:02:49.770Z,71.83
2018-11-06T07:05:20.209Z,78.90
2018-11-06T07:07:48.438Z,74.50
2018-11-06T07:10:18.303Z,85.27
2018-11-06T07:12:47.618Z,82.27
2018-11-06T07:15:17.306Z,80.57
2018-11-06T07:17:46.909Z,71.43
2018-11-06T07:20:17.433Z,69.27
2018-11-06T07:22:45.903Z,63.27
2018-11-06T07:25:14.598Z,64.90
2018-11-06T07:27:43.911Z,81.37
2018-11-06T07:30:15.051Z,64.17
2018-11-06T07:32:44.061Z,64.97
2018-11-06T07:35:13.218Z,67.90
2018-11-06T07:37:41.935Z,55.43
2018-11-06T07:40:12.663Z,56.63
2018-11-06T07:42:42.746Z,60.07
2018-11-06T07:45:14.231Z,52.03
2018-11-06T07:47:42.531Z,51.43
2018-11-06T07:50:11.506Z,48.77
2018-11-06T07:52:40.786Z,53.73
2018-11-06T07:55:11.730Z,49.63
2018-11-06T07:57:40.058Z,42.20
2018-11-06T08:00:11.678Z,43.60
2018-11-06T08:02:40.126Z,39.73
2018-11-06T08:05:08.573Z,40.70
2018-11-06T08:07:36.799Z,33.40
2018-11-06T08:10:05.884Z,37.47
2018-11-06T08:12:34.116Z,35.30
2018-11-06T08:15:02.570Z,33.53
2018-11-06T08:17:30.776Z,37.20
2018-11-06T08:19:59.018Z,30.10
2018-11-06T08:22:27.689Z,23.43
2018-11-06T08:24:56.150Z,27.60
2018-11-06T08:27:24.382Z,21.57
2018-11-06T08:29:52.626Z,18.47
2018-11-06T08:32:21.219Z,17.10
2018-11-06T08:34:49.135Z,17.73
2018-11-06T08:37:17.581Z,21.20
2018-11-06T08:39:46.464Z,18.97
2018-11-06T08:42:14.940Z,15.83
2018-11-06T08:44:43.171Z,16.60
2018-11-06T08:47:11.634Z,18.67
2018-11-06T08:49:40.138Z,18.97
2018-11-06T08:52:08.708Z,14.93
2018-11-06T08:54:37.018Z,15.67
2018-11-06T08:57:05.211Z,14.10
2018-11-06T08:59:33.890Z,13.20
2018-11-06T09:02:02.151Z,16.93
2018-11-06T09:04:30.427Z,14.13
2018-11-06T09:06:58.671Z,12.78
2018-11-06T09:09:26.902Z,12.53
2018-11-06T09:11:55.364Z,13.00
2018-11-06T09:14:23.586Z,11.57
2018-11-06T09:16:51.876Z,12.85
2018-11-06T09:19:20.043Z,15.95
2018-11-06T09:21:48.269Z,12.37
2018-11-06T09:24:16.510Z,12.13
2018-11-06T09:26:44.745Z,11.20
2018-11-06T09:29:13.012Z,12.20
2018-11-06T09:31:41.242Z,10.18
2018-11-06T09:34:09.469Z,15.05
2018-11-06T09:36:37.932Z,9.85
2018-11-06T09:39:08.706Z,10.88
2018-11-06T09:41:37.281Z,12.55
2018-11-06T09:44:05.763Z,10.13
2018-11-06T09:46:34.268Z,8.48
2018-11-06T09:49:02.701Z,9.80
2018-11-06T09:51:30.950Z,10.45
2018-11-06T09:53:59.162Z,9.58
2018-11-06T09:56:27.383Z,14.80
2018-11-06T09:58:55.611Z,11.53
2018-11-06T10:01:23.846Z,10.82
2018-11-06T10:03:52.334Z,12.40
2018-11-06T10:06:20.667Z,11.88
2018-11-06T10:08:49.562Z,9.18
2018-11-06T10:11:17.795Z,12.40
2018-11-06T10:13:46.308Z,10.35
2018-11-06T10:16:14.551Z,12.73
2018-11-06T10:18:43.075Z,10.40
2018-11-06T10:21:11.367Z,11.50
2018-11-06T10:23:39.766Z,9.63
2018-11-06T10:26:08.004Z,9.68
2018-11-06T10:28:36.219Z,9.78
2018-11-06T10:31:04.771Z,8.53
2018-11-06T10:33:32.982Z,10.38
2018-11-06T10:36:01.460Z,8.73
2018-11-06T10:38:29.958Z,8.45
2018-11-06T10:40:58.176Z,8.53
2018-11-06T10:43:26.402Z,8.33
2018-11-06T10:45:54.862Z,7.75
2018-11-06T10:48:23.328Z,8.45
2018-11-06T10:50:51.564Z,8.40
2018-11-06T10:53:19.806Z,8.68
2018-11-06T10:55:48.047Z,6.60
2018-11-06T10:58:16.345Z,8.58
2018-11-06T11:00:49.920Z,9.13
2018-11-06T11:03:23.529Z,6.30
2018-11-06T11:05:51.746Z,5.90
2018-11-06T11:08:19.983Z,8.18
2018-11-06T11:10:48.227Z,9.65
2018-11-06T11:13:16.487Z,6.62
2018-11-06T11:15:44.915Z,5.45
2018-11-06T11:18:13.155Z,8.05
2018-11-06T11:20:42.449Z,6.67
2018-11-06T11:23:10.678Z,8.85
2018-11-06T11:25:39.377Z,8.00
2018-11-06T11:28:07.783Z,7.00
2018-11-06T11:30:36.009Z,6.72
2018-11-06T11:33:04.673Z,6.55
2018-11-06T11:35:32.891Z,7.67
2018-11-06T11:38:01.336Z,6.28
2018-11-06T11:40:29.794Z,6.50
2018-11-06T11:42:58.250Z,8.85
2018-11-06T11:45:26.470Z,7.17
2018-11-06T11:47:54.691Z,8.95
2018-11-06T11:50:23.127Z,8.33
2018-11-06T11:52:51.357Z,7.00
2018-11-06T11:55:19.595Z,8.88
2018-11-06T11:57:47.825Z,10.48
2018-11-06T12:00:18.045Z,10.15
2018-11-06T12:02:46.279Z,13.48
2018-11-06T12:05:14.553Z,13.88
2018-11-06T12:07:42.758Z,11.83
2018-11-06T12:10:13.002Z,9.53
2018-11-06T12:12:41.570Z,7.35
2018-11-06T12:15:12.725Z,6.42
2018-11-06T12:17:41.456Z,11.30
2018-11-06T12:20:09.794Z,8.05
2018-11-06T12:22:38.555Z,6.83
2018-11-06T12:25:06.972Z,6.92
2018-11-06T12:27:35.131Z,9.35
2018-11-06T12:30:03.387Z,7.20
2018-11-06T12:32:31.711Z,7.92
2018-11-06T12:34:59.826Z,7.87
2018-11-06T12:37:28.048Z,5.83
2018-11-06T12:39:56.274Z,8.58
2018-11-06T12:42:24.503Z,6.30
2018-11-06T12:44:52.722Z,8.28
2018-11-06T12:47:21.074Z,5.25
2018-11-06T12:49:49.298Z,5.25
2018-11-06T12:52:17.514Z,7.15
2018-11-06T12:54:45.965Z,6.78
2018-11-06T12:57:14.200Z,5.20
2018-11-06T12:59:42.483Z,6.05
2018-11-06T13:02:10.715Z,8.68
2018-11-06T13:04:38.961Z,8.13
2018-11-06T13:07:07.187Z,5.47
2018-11-06T13:09:35.424Z,4.97
2018-11-06T13:12:03.870Z,5.00
2018-11-06T13:14:32.326Z,6.03
2018-11-06T13:17:00.801Z,10.00
2018-11-06T13:19:29.459Z,5.60
2018-11-06T13:21:57.987Z,6.20
2018-11-06T13:24:26.334Z,6.10
2018-11-06T13:26:54.563Z,7.03
2018-11-06T13:29:22.790Z,5.30
2018-11-06T13:31:51.018Z,5.47
2018-11-06T13:34:19.491Z,9.53
2018-11-06T13:36:47.702Z,6.20
2018-11-06T13:39:15.926Z,5.37
2018-11-06T13:41:44.481Z,13.62
2018-11-06T13:44:13.005Z,5.47
2018-11-06T13:46:41.250Z,7.05
2018-11-06T13:49:10.008Z,4.62
2018-11-06T13:51:38.226Z,5.30
2018-11-06T13:54:06.457Z,6.87
2018-11-06T13:56:35.035Z,6.47
2018-11-06T13:59:03.266Z,5.05
2018-11-06T14:01:31.738Z,5.75
2018-11-06T14:03:59.957Z,7.58
2018-11-06T14:06:28.197Z,5.12
2018-11-06T14:08:56.426Z,4.40
2018-11-06T14:11:24.663Z,6.72
2018-11-06T14:13:53.145Z,5.80
2018-11-06T14:16:21.357Z,7.55
2018-11-06T14:18:49.594Z,5.95
2018-11-06T14:21:17.878Z,10.50
2018-11-06T14:23:46.053Z,5.15
2018-11-06T14:26:14.270Z,8.98
2018-11-06T14:28:42.490Z,5.03
2018-11-06T14:31:10.709Z,5.42
2018-11-06T14:33:39.159Z,8.23
2018-11-06T14:36:07.382Z,4.87
2018-11-06T14:38:35.667Z,6.37
2018-11-06T14:41:03.888Z,5.33
2018-11-06T14:43:32.159Z,6.00
2018-11-06T14:46:00.815Z,4.60
2018-11-06T14:48:30.488Z,4.60
2018-11-06T14:50:58.720Z,8.05
2018-11-06T14:53:27.003Z,7.40
2018-11-06T14:55:55.545Z,7.10
2018-11-06T14:58:23.739Z,8.35
2018-11-06T15:00:52.198Z,7.42
2018-11-06T15:03:20.423Z,4.50
2018-11-06T15:05:49.367Z,6.05
2018-11-06T15:08:17.590Z,5.47
2018-11-06T15:10:46.050Z,14.85
2018-11-06T15:13:14.275Z,8.38
2018-11-06T15:15:42.526Z,89.32
2018-11-06T15:18:10.748Z,43.08
2018-11-06T15:20:39.074Z,15.35
2018-11-06T15:23:07.233Z,6.22
2018-11-06T15:25:35.457Z,8.13
2018-11-06T15:28:03.944Z,32.30
2018-11-06T15:30:32.178Z,30.50
2018-11-06T15:33:01.039Z,11.65
2018-11-06T15:35:29.289Z,12.07
2018-11-06T15:37:57.494Z,8.50
2018-11-06T15:40:25.726Z,18.42
2018-11-06T15:42:54.107Z,9.88
2018-11-06T15:45:22.550Z,10.38
2018-11-06T15:47:50.770Z,7.25
2018-11-06T15:50:20.161Z,11.60
2018-11-06T15:52:49.423Z,15.73
2018-11-06T15:55:17.666Z,10.50
2018-11-06T15:57:45.899Z,9.77
2018-11-06T16:00:16.223Z,8.67
2018-11-06T16:02:44.929Z,10.80
2018-11-06T16:05:13.447Z,11.13
2018-11-06T16:07:41.753Z,12.80
2018-11-06T16:10:14.655Z,9.80
2018-11-06T16:12:43.546Z,10.80
2018-11-06T16:15:11.849Z,7.77
2018-11-06T16:17:40.003Z,9.33
2018-11-06T16:20:10.219Z,11.13
2018-11-06T16:22:38.797Z,8.30
2018-11-06T16:25:08.627Z,6.27
2018-11-06T16:27:37.236Z,9.50
2018-11-06T16:30:06.577Z,10.33
2018-11-06T16:32:35.012Z,7.07
2018-11-06T16:35:03.939Z,8.57
2018-11-06T16:37:32.427Z,8.83
2018-11-06T16:40:00.642Z,6.80
2018-11-06T16:42:28.885Z,76.13
2018-11-06T16:44:57.103Z,11.17
2018-11-06T16:47:25.340Z,8.47
2018-11-06T16:49:54.033Z,6.57
2018-11-06T16:52:22.259Z,7.77
2018-11-06T16:54:50.491Z,9.77
2018-11-06T16:57:18.720Z,8.73
2018-11-06T16:59:47.169Z,4.67
2018-11-06T17:02:15.398Z,8.17
2018-11-06T17:04:43.827Z,8.13
2018-11-06T17:07:12.507Z,6.97
2018-11-06T17:09:40.748Z,9.43
2018-11-06T17:12:09.202Z,7.73
2018-11-06T17:14:37.427Z,7.43
2018-11-06T17:17:06.235Z,7.53
2018-11-06T17:19:34.602Z,6.07
2018-11-06T17:22:02.858Z,6.37
2018-11-06T17:24:31.070Z,8.90
2018-11-06T17:26:59.759Z,7.07
2018-11-06T17:29:28.005Z,6.00
2018-11-06T17:31:56.232Z,5.80
2018-11-06T17:34:24.466Z,7.40
2018-11-06T17:36:52.716Z,5.77
2018-11-06T17:39:21.024Z,7.53
2018-11-06T17:41:49.426Z,7.97
2018-11-06T17:44:18.135Z,6.67
2018-11-06T17:46:46.358Z,8.80
2018-11-06T17:49:14.607Z,10.00
2018-11-06T17:51:43.290Z,6.37
2018-11-06T17:54:11.525Z,9.40
2018-11-06T17:56:39.826Z,9.10
2018-11-06T17:59:08.053Z,8.97
2018-11-06T18:01:36.299Z,8.57
2018-11-06T18:04:04.667Z,7.97
2018-11-06T18:06:33.030Z,8.77
2018-11-06T18:09:01.259Z,10.93
2018-11-06T18:11:29.710Z,9.63
2018-11-06T18:13:57.930Z,8.83
2018-11-06T18:16:26.386Z,11.17
2018-11-06T18:18:54.609Z,18.70
2018-11-06T18:21:22.851Z,21.00
2018-11-06T18:23:52.076Z,19.70
2018-11-06T18:26:20.367Z,17.87
2018-11-06T18:28:48.587Z,16.67
2018-11-06T18:31:16.827Z,20.53
2018-11-06T18:33:45.054Z,20.30
2018-11-06T18:36:13.278Z,19.73
2018-11-06T18:38:41.719Z,28.60
2018-11-06T18:41:09.960Z,44.43
2018-11-06T18:43:38.184Z,38.60
2018-11-06T18:46:06.883Z,34.07
2018-11-06T18:48:36.155Z,25.60
2018-11-06T18:51:04.482Z,19.10
2018-11-06T18:53:32.772Z,12.57
2018-11-06T18:56:00.983Z,10.93
2018-11-06T18:58:29.882Z,12.60
2018-11-06T19:00:58.066Z,13.07
2018-11-06T19:03:26.500Z,13.20
2018-11-06T19:05:54.727Z,14.77
2018-11-06T19:08:22.958Z,15.90
2018-11-06T19:10:51.288Z,14.30
2018-11-06T19:13:19.426Z,13.90
2018-11-06T19:15:47.778Z,13.90
2018-11-06T19:18:16.012Z,13.30
2018-11-06T19:20:44.475Z,10.83
2018-11-06T19:23:12.698Z,11.47
2018-11-06T19:25:41.155Z,10.97
2018-11-06T19:28:09.590Z,10.83
2018-11-06T19:30:38.128Z,12.23
2018-11-06T19:33:06.250Z,8.17
2018-11-06T19:35:34.462Z,10.17
2018-11-06T19:38:02.713Z,10.13
2018-11-06T19:40:30.972Z,11.80
2018-11-06T19:42:59.368Z,11.27
2018-11-06T19:45:27.806Z,16.93
2018-11-06T19:47:56.063Z,12.57
2018-11-06T19:50:24.274Z,12.33
2018-11-06T19:52:52.595Z,12.03
2018-11-06T19:55:20.735Z,12.47
2018-11-06T19:57:48.971Z,13.17
2018-11-06T20:00:18.510Z,14.33
2018-11-06T20:02:47.960Z,13.40
2018-11-06T20:05:16.455Z,16.20
2018-11-06T20:07:45.277Z,16.70
2018-11-06T20:10:17.846Z,16.03
2018-11-06T20:12:47.149Z,15.53
2018-11-06T20:15:16.195Z,14.90
2018-11-06T20:17:45.084Z,14.23
2018-11-06T20:20:21.387Z,12.00
2018-11-06T20:22:49.858Z,16.60
2018-11-06T20:25:18.080Z,15.10
2018-11-06T20:27:46.358Z,16.93
2018-11-06T20:30:16.750Z,19.30
2018-11-06T20:32:44.979Z,21.83
2018-11-06T20:35:13.839Z,19.43
2018-11-06T20:37:42.115Z,22.77
2018-11-06T20:40:12.821Z,18.27
2018-11-06T20:42:41.863Z,14.37
2018-11-06T20:45:11.926Z,18.50
2018-11-06T20:47:40.932Z,20.80
2018-11-06T20:50:11.103Z,17.30
2018-11-06T20:52:39.360Z,17.13
2018-11-06T20:55:08.215Z,17.97
2018-11-06T20:57:36.462Z,20.83
2018-11-06T21:00:04.947Z,20.87
2018-11-06T21:02:33.151Z,19.33
2018-11-06T21:05:01.591Z,17.67
2018-11-06T21:07:30.042Z,18.80
2018-11-06T21:09:58.263Z,22.53
2018-11-06T21:12:26.515Z,24.43
2018-11-06T21:14:54.738Z,29.30
2018-11-06T21:17:23.382Z,29.17
2018-11-06T21:19:51.718Z,29.03
2018-11-06T21:22:19.876Z,35.17
2018-11-06T21:24:48.393Z,26.63
2018-11-06T21:27:16.820Z,24.47
2018-11-06T21:29:45.015Z,20.03
2018-11-06T21:32:13.223Z,16.17
2018-11-06T21:34:41.456Z,14.30
2018-11-06T21:37:09.894Z,18.97
2018-11-06T21:39:38.130Z,16.97
2018-11-06T21:42:06.408Z,19.73
2018-11-06T21:44:34.815Z,22.50
2018-11-06T21:47:03.027Z,19.10
2018-11-06T21:49:31.259Z,18.40
2018-11-06T21:51:59.724Z,18.57
2018-11-06T21:54:28.222Z,19.43
2018-11-06T21:56:56.556Z,17.17
2018-11-06T21:59:25.027Z,16.50
2018-11-06T22:01:53.563Z,19.63
2018-11-06T22:04:21.849Z,26.80
2018-11-06T22:06:50.070Z,27.40
2018-11-06T22:09:18.309Z,21.83
2018-11-06T22:11:46.518Z,25.57
2018-11-06T22:14:14.751Z,21.97
2018-11-06T22:16:42.964Z,20.73
2018-11-06T22:19:11.210Z,22.03
2018-11-06T22:21:39.746Z,20.50
2018-11-06T22:24:07.915Z,16.57
2018-11-06T22:26:36.710Z,23.17
2018-11-06T22:29:04.963Z,18.83
2018-11-06T22:31:33.331Z,18.33
2018-11-06T22:34:01.554Z,21.17
2018-11-06T22:36:29.783Z,20.70
2018-11-06T22:38:58.020Z,20.70
2018-11-06T22:41:26.491Z,19.40
2018-11-06T22:43:54.708Z,20.43
2018-11-06T22:46:23.158Z,23.47
2018-11-06T22:48:51.379Z,19.47
2018-11-06T22:51:19.598Z,24.33
2018-11-06T22:53:47.837Z,28.57
2018-11-06T22:56:16.135Z,23.80
2018-11-06T22:58:44.429Z,27.77
2018-11-06T23:01:12.695Z,22.50
2018-11-06T23:03:41.622Z,26.63
2018-11-06T23:06:10.551Z,25.73
2018-11-06T23:08:38.541Z,29.73
2018-11-06T23:11:06.796Z,28.10
2018-11-06T23:13:35.043Z,26.70
2018-11-06T23:16:03.493Z,26.50
2018-11-06T23:18:31.719Z,30.60
2018-11-06T23:20:59.970Z,29.30
2018-11-06T23:23:28.183Z,32.77
2018-11-06T23:25:56.642Z,28.27
2018-11-06T23:28:24.898Z,29.03
2018-11-06T23:30:53.134Z,24.83
2018-11-06T23:33:21.378Z,22.63
2018-11-06T23:35:49.860Z,26.00
2018-11-06T23:38:18.062Z,24.97
2018-11-06T23:40:46.295Z,27.23
2018-11-06T23:43:14.520Z,24.83
2018-11-06T23:45:43.367Z,28.43
2018-11-06T23:48:11.608Z,20.73
2018-11-06T23:50:39.835Z,22.70
2018-11-06T23:53:08.283Z,23.60
2018-11-06T23:55:36.518Z,24.53
2018-11-06T23:58:05.031Z,21.67
